Time,TemperatureF,DewpointF,PressureIn,WindDirection,WindDirectionDegrees,WindSpeedMPH,WindSpeedGustMPH,Humidity,HourlyPrecipIn,Conditions,Clouds,dailyrainin,SoftwareType,DateUTC
2013-04-25 00:03:00,54.0,43.0,29.86,North,-999,-999.0,-999.0,67,-99.99,,,-99.99,,2013-04-25 04:03:00,
2013-04-25 00:13:00,53.0,44.0,29.87,North,-999,-999.0,-999.0,68,-99.99,,,-99.99,,2013-04-25 04:13:00,
2013-04-25 00:23:00,53.0,44.0,29.87,North,-999,-999.0,-999.0,68,-99.99,,,-99.99,,2013-04-25 04:23:00,
2013-04-25 00:33:00,53.0,43.0,29.87,North,-999,-999.0,-999.0,70,-99.99,,,-99.99,,2013-04-25 04:33:00,
2013-04-25 00:43:00,53.0,44.0,29.86,North,-999,-999.0,-999.0,71,-99.99,,,-99.99,,2013-04-25 04:43:00,
2013-04-25 00:52:00,53.0,44.0,29.86,North,-999,-999.0,-999.0,71,-99.99,,,-99.99,,2013-04-25 04:52:00,
2013-04-25 01:03:00,52.0,44.0,29.86,North,-999,-999.0,-999.0,72,-99.99,,,-99.99,,2013-04-25 05:03:00,
2013-04-25 01:12:00,52.0,44.0,29.85,North,-999,-999.0,-999.0,73,-99.99,,,-99.99,,2013-04-25 05:12:00,
2013-04-25 01:22:00,52.0,44.0,29.85,North,-999,-999.0,-999.0,73,-99.99,,,-99.99,,2013-04-25 05:22:00,
2013-04-25 01:32:00,52.0,44.0,29.85,North,-999,-999.0,-999.0,74,-99.99,,,-99.99,,2013-04-25 05:32:00,
2013-04-25 01:42:00,52.0,44.0,29.85,North,-999,-999.0,-999.0,74,-99.99,,,-99.99,,2013-04-25 05:42:00,
2013-04-25 01:51:00,52.0,45.0,29.85,North,-999,-999.0,-999.0,75,-99.99,,,-99.99,,2013-04-25 05:51:00,
2013-04-25 02:02:00,52.0,45.0,29.85,North,-999,-999.0,-999.0,76,-99.99,,,-99.99,,2013-04-25 06:02:00,
2013-04-25 02:11:00,53.0,45.0,29.85,North,-999,-999.0,-999.0,76,-99.99,,,-99.99,,2013-04-25 06:11:00,
2013-04-25 02:22:00,53.0,45.0,29.85,North,-999,-999.0,-999.0,76,-99.99,,,-99.99,,2013-04-25 06:22:00,
2013-04-25 02:32:00,53.0,46.0,29.85,North,-999,-999.0,-999.0,77,-99.99,,,-99.99,,2013-04-25 06:32:00,
2013-04-25 02:42:00,53.0,46.0,29.85,North,-999,-999.0,-999.0,77,-99.99,,,-99.99,,2013-04-25 06:42:00,
2013-04-25 02:52:00,53.0,46.0,29.85,North,-999,-999.0,-999.0,77,-99.99,,,-99.99,,2013-04-25 06:52:00,
2013-04-25 03:02:00,54.0,47.0,29.85,North,-999,-999.0,-999.0,77,-99.99,,,-99.99,,2013-04-25 07:02:00,
2013-04-25 03:12:00,54.0,47.0,29.86,North,-999,-999.0,-999.0,77,-99.99,,,-99.99,,2013-04-25 07:12:00,
2013-04-25 03:22:00,54.0,47.0,29.86,North,-999,-999.0,-999.0,77,-99.99,,,-99.99,,2013-04-25 07:22:00,
2013-04-25 03:32:00,54.0,48.0,29.88,North,-999,-999.0,-999.0,77,-99.99,,,-99.99,,2013-04-25 07:32:00,
2013-04-25 03:42:00,54.0,48.0,29.88,North,-999,-999.0,-999.0,77,-99.99,,,-99.99,,2013-04-25 07:42:00,
2013-04-25 03:52:00,54.0,48.0,29.88,North,-999,-999.0,-999.0,77,-99.99,,,-99.99,,2013-04-25 07:52:00,
2013-04-25 04:02:00,54.0,48.0,29.88,North,-999,-999.0,-999.0,78,-99.99,,,-99.99,,2013-04-25 08:02:00,
2013-04-25 04:11:00,54.0,48.0,29.89,North,-999,-999.0,-999.0,81,-99.99,,,-99.99,,2013-04-25 08:11:00,
2013-04-25 04:21:00,54.0,48.0,29.89,North,-999,-999.0,-999.0,81,-99.99,,,-99.99,,2013-04-25 08:21:00,
2013-04-25 04:32:00,53.0,49.0,29.89,North,-999,-999.0,-999.0,83,-99.99,,,-99.99,,2013-04-25 08:32:00,
2013-04-25 04:42:00,53.0,49.0,29.91,North,-999,-999.0,-999.0,85,-99.99,,,-99.99,,2013-04-25 08:42:00,
2013-04-25 04:51:00,53.0,49.0,29.91,North,-999,-999.0,-999.0,85,-99.99,,,-99.99,,2013-04-25 08:51:00,
2013-04-25 05:01:00,53.0,48.0,29.91,North,-999,-999.0,-999.0,84,-99.99,,,-99.99,,2013-04-25 09:01:00,
2013-04-25 05:11:00,52.0,47.0,29.94,North,-999,-999.0,-999.0,81,-99.99,,,-99.99,,2013-04-25 09:11:00,
2013-04-25 05:21:00,52.0,47.0,29.94,North,-999,-999.0,-999.0,81,-99.99,,,-99.99,,2013-04-25 09:21:00,
2013-04-25 05:33:00,49.0,41.0,29.96,North,-999,-999.0,-999.0,73,-99.99,,,-99.99,,2013-04-25 09:33:00,
2013-04-25 05:42:00,48.0,36.0,29.98,North,-999,-999.0,-999.0,63,-99.99,,,-99.99,,2013-04-25 09:42:00,
2013-04-25 05:52:00,48.0,36.0,29.98,North,-999,-999.0,-999.0,63,-99.99,,,-99.99,,2013-04-25 09:52:00,
2013-04-25 06:02:00,47.0,36.0,29.99,North,-999,-999.0,-999.0,64,-99.99,,,-99.99,,2013-04-25 10:02:00,
2013-04-25 06:12:00,47.0,35.0,29.99,North,-999,-999.0,-999.0,63,-99.99,,,-99.99,,2013-04-25 10:12:00,
2013-04-25 06:22:00,47.0,35.0,29.99,North,-999,-999.0,-999.0,63,-99.99,,,-99.99,,2013-04-25 10:22:00,
2013-04-25 06:32:00,47.0,35.0,30.00,North,-999,-999.0,-999.0,64,-99.99,,,-99.99,,2013-04-25 10:32:00,
2013-04-25 06:42:00,47.0,35.0,30.00,North,-999,-999.0,-999.0,64,-99.99,,,-99.99,,2013-04-25 10:42:00,
2013-04-25 06:52:00,46.0,35.0,30.00,North,-999,-999.0,-999.0,64,-99.99,,,-99.99,,2013-04-25 10:52:00,
2013-04-25 07:02:00,47.0,34.0,30.03,North,-999,-999.0,-999.0,60,-99.99,,,-99.99,,2013-04-25 11:02:00,
2013-04-25 07:12:00,47.0,34.0,30.05,North,-999,-999.0,-999.0,59,-99.99,,,-99.99,,2013-04-25 11:12:00,
2013-04-25 07:22:00,47.0,34.0,30.05,North,-999,-999.0,-999.0,59,-99.99,,,-99.99,,2013-04-25 11:22:00,
2013-04-25 07:32:00,47.0,32.0,30.05,North,-999,-999.0,-999.0,57,-99.99,,,-99.99,,2013-04-25 11:32:00,
2013-04-25 07:42:00,47.0,32.0,30.05,North,-999,-999.0,-999.0,57,-99.99,,,-99.99,,2013-04-25 11:42:00,
2013-04-25 07:51:00,46.0,31.0,30.06,North,-999,-999.0,-999.0,55,-99.99,,,-99.99,,2013-04-25 11:51:00,
2013-04-25 08:01:00,46.0,30.0,30.06,North,-999,-999.0,-999.0,53,-99.99,,,-99.99,,2013-04-25 12:01:00,
2013-04-25 08:12:00,46.0,30.0,30.06,North,-999,-999.0,-999.0,53,-99.99,,,-99.99,,2013-04-25 12:12:00,
2013-04-25 08:21:00,46.0,30.0,30.06,North,-999,-999.0,-999.0,52,-99.99,,,-99.99,,2013-04-25 12:21:00,
2013-04-25 08:32:00,46.0,30.0,30.08,North,-999,-999.0,-999.0,52,-99.99,,,-99.99,,2013-04-25 12:32:00,
2013-04-25 08:42:00,46.0,30.0,30.08,North,-999,-999.0,-999.0,53,-99.99,,,-99.99,,2013-04-25 12:42:00,
2013-04-25 08:51:00,46.0,30.0,30.08,North,-999,-999.0,-999.0,53,-99.99,,,-99.99,,2013-04-25 12:51:00,
2013-04-25 09:02:00,47.0,30.0,30.08,North,-999,-999.0,-999.0,51,-99.99,,,-99.99,,2013-04-25 13:02:00,
2013-04-25 09:11:00,47.0,30.0,30.08,North,-999,-999.0,-999.0,51,-99.99,,,-99.99,,2013-04-25 13:11:00,
2013-04-25 09:21:00,47.0,28.0,30.09,North,-999,-999.0,-999.0,47,-99.99,,,-99.99,,2013-04-25 13:21:00,
2013-04-25 09:32:00,48.0,29.0,30.08,North,-999,-999.0,-999.0,47,-99.99,,,-99.99,,2013-04-25 13:32:00,
2013-04-25 09:42:00,49.0,28.0,30.09,North,-999,-999.0,-999.0,43,-99.99,,,-99.99,,2013-04-25 13:42:00,
2013-04-25 09:52:00,49.0,28.0,30.09,North,-999,-999.0,-999.0,43,-99.99,,,-99.99,,2013-04-25 13:52:00,
2013-04-25 10:02:00,50.0,28.0,30.09,North,-999,-999.0,-999.0,42,-99.99,,,-99.99,,2013-04-25 14:02:00,
2013-04-25 10:11:00,51.0,27.0,30.11,North,-999,-999.0,-999.0,39,-99.99,,,-99.99,,2013-04-25 14:11:00,
2013-04-25 10:21:00,51.0,27.0,30.11,North,-999,-999.0,-999.0,39,-99.99,,,-99.99,,2013-04-25 14:21:00,
2013-04-25 10:32:00,51.0,26.0,30.11,North,-999,-999.0,-999.0,37,-99.99,,,-99.99,,2013-04-25 14:32:00,
2013-04-25 10:42:00,52.0,26.0,30.11,North,-999,-999.0,-999.0,37,-99.99,,,-99.99,,2013-04-25 14:42:00,
2013-04-25 10:52:00,52.0,26.0,30.11,North,-999,-999.0,-999.0,37,-99.99,,,-99.99,,2013-04-25 14:52:00,
2013-04-25 11:02:00,53.0,28.0,30.11,North,-999,-999.0,-999.0,37,-99.99,,,-99.99,,2013-04-25 15:02:00,
2013-04-25 11:11:00,54.0,25.0,30.11,North,-999,-999.0,-999.0,32,-99.99,,,-99.99,,2013-04-25 15:11:00,
2013-04-25 11:21:00,54.0,25.0,30.11,North,-999,-999.0,-999.0,32,-99.99,,,-99.99,,2013-04-25 15:21:00,
2013-04-25 11:33:00,54.0,25.0,30.12,North,-999,-999.0,-999.0,32,-99.99,,,-99.99,,2013-04-25 15:33:00,
2013-04-25 11:42:00,55.0,24.0,30.12,North,-999,-999.0,-999.0,30,-99.99,,,-99.99,,2013-04-25 15:42:00,
2013-04-25 11:53:00,55.0,24.0,30.12,North,-999,-999.0,-999.0,30,-99.99,,,-99.99,,2013-04-25 15:53:00,
2013-04-25 12:02:00,55.0,26.0,30.13,North,-999,-999.0,-999.0,32,-99.99,,,-99.99,,2013-04-25 16:02:00,
2013-04-25 12:13:00,55.0,26.0,30.13,North,-999,-999.0,-999.0,32,-99.99,,,-99.99,,2013-04-25 16:13:00,
2013-04-25 12:24:00,55.0,25.0,30.13,North,-999,-999.0,-999.0,30,-99.99,,,-99.99,,2013-04-25 16:24:00,
2013-04-25 12:33:00,56.0,25.0,30.13,North,-999,-999.0,-999.0,30,-99.99,,,-99.99,,2013-04-25 16:33:00,
2013-04-25 12:43:00,56.0,25.0,30.13,North,-999,-999.0,-999.0,30,-99.99,,,-99.99,,2013-04-25 16:43:00,
2013-04-25 12:52:00,55.0,24.0,30.14,North,-999,-999.0,-999.0,29,-99.99,,,-99.99,,2013-04-25 16:52:00,
2013-04-25 13:02:00,57.0,24.0,30.14,North,-999,-999.0,-999.0,28,-99.99,,,-99.99,,2013-04-25 17:02:00,
2013-04-25 13:11:00,57.0,26.0,30.13,North,-999,-999.0,-999.0,29,-99.99,,,-99.99,,2013-04-25 17:11:00,
2013-04-25 13:22:00,57.0,26.0,30.13,North,-999,-999.0,-999.0,29,-99.99,,,-99.99,,2013-04-25 17:22:00,
2013-04-25 13:32:00,58.0,24.0,30.14,North,-999,-999.0,-999.0,26,-99.99,,,-99.99,,2013-04-25 17:32:00,
2013-04-25 13:42:00,59.0,24.0,30.14,North,-999,-999.0,-999.0,26,-99.99,,,-99.99,,2013-04-25 17:42:00,
2013-04-25 13:53:00,59.0,24.0,30.14,North,-999,-999.0,-999.0,26,-99.99,,,-99.99,,2013-04-25 17:53:00,
2013-04-25 14:01:00,59.0,24.0,30.14,North,-999,-999.0,-999.0,26,-99.99,,,-99.99,,2013-04-25 18:01:00,
2013-04-25 14:11:00,59.0,22.0,30.14,North,-999,-999.0,-999.0,24,-99.99,,,-99.99,,2013-04-25 18:11:00,
2013-04-25 14:22:00,59.0,22.0,30.14,North,-999,-999.0,-999.0,24,-99.99,,,-99.99,,2013-04-25 18:22:00,
2013-04-25 14:32:00,60.0,24.0,30.13,North,-999,-999.0,-999.0,25,-99.99,,,-99.99,,2013-04-25 18:32:00,
2013-04-25 14:42:00,60.0,24.0,30.13,North,-999,-999.0,-999.0,25,-99.99,,,-99.99,,2013-04-25 18:42:00,
2013-04-25 14:52:00,60.0,23.0,30.14,North,-999,-999.0,-999.0,23,-99.99,,,-99.99,,2013-04-25 18:52:00,
2013-04-25 15:02:00,61.0,25.0,30.13,North,-999,-999.0,-999.0,25,-99.99,,,-99.99,,2013-04-25 19:02:00,
2013-04-25 15:12:00,61.0,25.0,30.13,North,-999,-999.0,-999.0,25,-99.99,,,-99.99,,2013-04-25 19:12:00,
2013-04-25 15:21:00,62.0,23.0,30.13,North,-999,-999.0,-999.0,22,-99.99,,,-99.99,,2013-04-25 19:21:00,
2013-04-25 15:31:00,61.0,21.0,30.13,North,-999,-999.0,-999.0,21,-99.99,,,-99.99,,2013-04-25 19:31:00,
2013-04-25 15:42:00,61.0,21.0,30.13,North,-999,-999.0,-999.0,21,-99.99,,,-99.99,,2013-04-25 19:42:00,
2013-04-25 15:52:00,62.0,23.0,30.13,North,-999,-999.0,-999.0,22,-99.99,,,-99.99,,2013-04-25 19:52:00,
2013-04-25 16:02:00,61.0,23.0,30.13,North,-999,-999.0,-999.0,23,-99.99,,,-99.99,,2013-04-25 20:02:00,
2013-04-25 16:11:00,60.0,22.0,30.14,North,-999,-999.0,-999.0,22,-99.99,,,-99.99,,2013-04-25 20:11:00,
2013-04-25 16:22:00,60.0,22.0,30.14,North,-999,-999.0,-999.0,22,-99.99,,,-99.99,,2013-04-25 20:22:00,
2013-04-25 16:32:00,61.0,21.0,30.14,North,-999,-999.0,-999.0,21,-99.99,,,-99.99,,2013-04-25 20:32:00,
2013-04-25 16:42:00,61.0,21.0,30.14,North,-999,-999.0,-999.0,21,-99.99,,,-99.99,,2013-04-25 20:42:00,
2013-04-25 16:52:00,61.0,20.0,30.14,North,-999,-999.0,-999.0,20,-99.99,,,-99.99,,2013-04-25 20:52:00,
2013-04-25 17:01:00,61.0,20.0,30.15,North,-999,-999.0,-999.0,20,-99.99,,,-99.99,,2013-04-25 21:01:00,
2013-04-25 17:11:00,61.0,20.0,30.15,North,-999,-999.0,-999.0,20,-99.99,,,-99.99,,2013-04-25 21:11:00,
2013-04-25 17:22:00,62.0,18.0,30.15,North,-999,-999.0,-999.0,18,-99.99,,,-99.99,,2013-04-25 21:22:00,
2013-04-25 17:33:00,61.0,20.0,30.16,North,-999,-999.0,-999.0,20,-99.99,,,-99.99,,2013-04-25 21:33:00,
2013-04-25 17:42:00,62.0,18.0,30.16,North,-999,-999.0,-999.0,18,-99.99,,,-99.99,,2013-04-25 21:42:00,
2013-04-25 17:53:00,62.0,18.0,30.16,North,-999,-999.0,-999.0,18,-99.99,,,-99.99,,2013-04-25 21:53:00,
2013-04-25 18:02:00,61.0,19.0,30.17,North,-999,-999.0,-999.0,19,-99.99,,,-99.99,,2013-04-25 22:02:00,
2013-04-25 18:12:00,61.0,19.0,30.17,North,-999,-999.0,-999.0,19,-99.99,,,-99.99,,2013-04-25 22:12:00,
2013-04-25 18:22:00,61.0,17.0,30.16,North,-999,-999.0,-999.0,18,-99.99,,,-99.99,,2013-04-25 22:22:00,
2013-04-25 18:33:00,60.0,16.0,30.17,North,-999,-999.0,-999.0,17,-99.99,,,-99.99,,2013-04-25 22:33:00,
2013-04-25 18:42:00,60.0,16.0,30.17,North,-999,-999.0,-999.0,17,-99.99,,,-99.99,,2013-04-25 22:42:00,
2013-04-25 18:53:00,60.0,16.0,30.17,North,-999,-999.0,-999.0,17,-99.99,,,-99.99,,2013-04-25 22:53:00,
2013-04-25 19:02:00,60.0,17.0,30.18,North,-999,-999.0,-999.0,18,-99.99,,,-99.99,,2013-04-25 23:02:00,
2013-04-25 19:12:00,60.0,17.0,30.18,North,-999,-999.0,-999.0,18,-99.99,,,-99.99,,2013-04-25 23:12:00,
2013-04-25 19:22:00,59.0,17.0,30.19,North,-999,-999.0,-999.0,18,-99.99,,,-99.99,,2013-04-25 23:22:00,
2013-04-25 19:32:00,59.0,17.0,30.20,North,-999,-999.0,-999.0,19,-99.99,,,-99.99,,2013-04-25 23:32:00,
2013-04-25 19:42:00,59.0,17.0,30.20,North,-999,-999.0,-999.0,19,-99.99,,,-99.99,,2013-04-25 23:42:00,
2013-04-25 19:52:00,57.0,17.0,30.20,North,-999,-999.0,-999.0,20,-99.99,,,-99.99,,2013-04-25 23:52:00,
2013-04-25 20:01:00,56.0,17.0,30.21,North,-999,-999.0,-999.0,21,-99.99,,,-99.99,,2013-04-26 00:01:00,
2013-04-25 20:11:00,56.0,17.0,30.21,North,-999,-999.0,-999.0,21,-99.99,,,-99.99,,2013-04-26 00:11:00,
2013-04-25 20:21:00,56.0,17.0,30.21,North,-999,-999.0,-999.0,21,-99.99,,,-99.99,,2013-04-26 00:21:00,
2013-04-25 20:32:00,55.0,18.0,30.22,North,-999,-999.0,-999.0,23,-99.99,,,-99.99,,2013-04-26 00:32:00,
2013-04-25 20:41:00,55.0,18.0,30.22,North,-999,-999.0,-999.0,23,-99.99,,,-99.99,,2013-04-26 00:41:00,
2013-04-25 20:52:00,54.0,18.0,30.23,North,-999,-999.0,-999.0,24,-99.99,,,-99.99,,2013-04-26 00:52:00,
2013-04-25 21:01:00,54.0,18.0,30.24,North,-999,-999.0,-999.0,24,-99.99,,,-99.99,,2013-04-26 01:01:00,
2013-04-25 21:11:00,53.0,19.0,30.25,North,-999,-999.0,-999.0,25,-99.99,,,-99.99,,2013-04-26 01:11:00,
2013-04-25 21:21:00,53.0,19.0,30.25,North,-999,-999.0,-999.0,25,-99.99,,,-99.99,,2013-04-26 01:21:00,
2013-04-25 21:32:00,53.0,19.0,30.26,North,-999,-999.0,-999.0,25,-99.99,,,-99.99,,2013-04-26 01:32:00,
2013-04-25 21:42:00,53.0,19.0,30.26,North,-999,-999.0,-999.0,25,-99.99,,,-99.99,,2013-04-26 01:42:00,
2013-04-25 21:52:00,52.0,19.0,30.26,North,-999,-999.0,-999.0,26,-99.99,,,-99.99,,2013-04-26 01:52:00,
2013-04-25 22:02:00,53.0,18.0,30.26,North,-999,-999.0,-999.0,25,-99.99,,,-99.99,,2013-04-26 02:02:00,
2013-04-25 22:11:00,52.0,18.0,30.27,North,-999,-999.0,-999.0,26,-99.99,,,-99.99,,2013-04-26 02:11:00,
2013-04-25 22:21:00,52.0,18.0,30.27,North,-999,-999.0,-999.0,26,-99.99,,,-99.99,,2013-04-26 02:21:00,
2013-04-25 22:32:00,51.0,18.0,30.28,North,-999,-999.0,-999.0,26,-99.99,,,-99.99,,2013-04-26 02:32:00,
2013-04-25 22:42:00,51.0,18.0,30.28,North,-999,-999.0,-999.0,26,-99.99,,,-99.99,,2013-04-26 02:42:00,
2013-04-25 22:51:00,51.0,18.0,30.28,North,-999,-999.0,-999.0,27,-99.99,,,-99.99,,2013-04-26 02:51:00,
2013-04-25 23:01:00,51.0,19.0,30.29,North,-999,-999.0,-999.0,27,-99.99,,,-99.99,,2013-04-26 03:01:00,
2013-04-25 23:11:00,50.0,19.0,30.29,North,-999,-999.0,-999.0,28,-99.99,,,-99.99,,2013-04-26 03:11:00,
2013-04-25 23:21:00,50.0,19.0,30.29,North,-999,-999.0,-999.0,28,-99.99,,,-99.99,,2013-04-26 03:21:00,
2013-04-25 23:33:00,50.0,18.0,30.29,North,-999,-999.0,-999.0,28,-99.99,,,-99.99,,2013-04-26 03:33:00,
2013-04-25 23:43:00,49.0,19.0,30.29,North,-999,-999.0,-999.0,30,-99.99,,,-99.99,,2013-04-26 03:43:00,
2013-04-25 23:53:00,49.0,19.0,30.29,North,-999,-999.0,-999.0,30,-99.99,,,-99.99,,2013-04-26 03:53:00,